createdAt,value
2023-04-30T00:00:00.309Z,102470.56
2023-04-30T00:02:27.082Z,102474.75
2023-04-30T00:04:53.723Z,102471.19
2023-04-30T00:07:20.317Z,102463.25
2023-04-30T00:09:47.115Z,102476.97
2023-04-30T00:12:13.695Z,102477.53
2023-04-30T00:14:40.279Z,102472.25
2023-04-30T00:17:06.804Z,102462.56
2023-04-30T00:19:33.352Z,102469.47
2023-04-30T00:22:01.654Z,102475.47
2023-04-30T00:24:28.755Z,102463.31
2023-04-30T00:26:55.394Z,102469.34
2023-04-30T00:29:21.985Z,102469.91
2023-04-30T00:31:49.122Z,102479.28
2023-04-30T00:34:15.849Z,102474.59
2023-04-30T00:36:42.354Z,102475.53
2023-04-30T00:39:09.165Z,102475.16
2023-04-30T00:41:36.210Z,102467.94
2023-04-30T00:44:03.002Z,102479.06
2023-04-30T00:46:29.685Z,102480.66
2023-04-30T00:48:56.554Z,102487.47
2023-04-30T00:51:23.884Z,102483.06
2023-04-30T00:53:51.114Z,102485.50
2023-04-30T00:56:18.162Z,102484.69
2023-04-30T00:58:45.859Z,102499.03
2023-04-30T01:01:12.516Z,102492.06
2023-04-30T01:03:39.833Z,102489.44
2023-04-30T01:06:06.576Z,102488.47
2023-04-30T01:08:33.786Z,102490.94
2023-04-30T01:11:18.661Z,102490.94
2023-04-30T01:13:55.430Z,102496.81
2023-04-30T01:16:39.790Z,102485.34
2023-04-30T01:19:19.352Z,102495.50
2023-04-30T01:21:46.644Z,102500.41
2023-04-30T01:24:39.872Z,102497.59
2023-04-30T01:27:29.454Z,102500.34
2023-04-30T01:29:56.929Z,102489.69
2023-04-30T01:32:24.430Z,102490.66
2023-04-30T01:34:51.018Z,102491.47
2023-04-30T01:37:54.864Z,102494.81
2023-04-30T01:40:29.557Z,102498.81
2023-04-30T01:43:06.708Z,102498.81
2023-04-30T01:45:41.818Z,102493.53
2023-04-30T01:48:18.230Z,102498.66
2023-04-30T01:50:51.373Z,102488.09
2023-04-30T01:53:33.147Z,102480.91
2023-04-30T01:56:04.368Z,102486.03
2023-04-30T01:58:32.360Z,102489.38
2023-04-30T02:00:58.892Z,102486.72
2023-04-30T02:03:25.601Z,102491.06
2023-04-30T02:05:53.347Z,102499.53
2023-04-30T02:08:20.000Z,102497.69
2023-04-30T02:10:46.755Z,102494.00
2023-04-30T02:13:13.315Z,102495.59
2023-04-30T02:15:39.855Z,102492.94
2023-04-30T02:18:06.522Z,102499.84
2023-04-30T02:20:33.088Z,102491.13
2023-04-30T02:22:59.776Z,102501.44
2023-04-30T02:25:26.455Z,102495.28
2023-04-30T02:27:52.978Z,102493.34
2023-04-30T02:30:20.891Z,102503.03
2023-04-30T02:32:48.137Z,102507.28
2023-04-30T02:35:14.863Z,102500.13
2023-04-30T02:37:41.740Z,102490.38
2023-04-30T02:40:08.804Z,102500.72
2023-04-30T02:42:35.334Z,102506.78
2023-04-30T02:45:01.989Z,102500.72
2023-04-30T02:47:28.553Z,102502.31
2023-04-30T02:49:55.274Z,102500.53
2023-04-30T02:52:22.031Z,102489.25
2023-04-30T02:54:48.719Z,102489.06
2023-04-30T02:57:15.350Z,102482.75
2023-04-30T02:59:45.865Z,102485.41
2023-04-30T03:02:13.329Z,102485.31
2023-04-30T03:04:40.002Z,102487.81
2023-04-30T03:07:06.990Z,102492.97
2023-04-30T03:09:33.866Z,102478.00
2023-04-30T03:12:00.759Z,102492.81
2023-04-30T03:14:27.327Z,102486.75
2023-04-30T03:16:54.088Z,102485.00
2023-04-30T03:19:25.043Z,102481.47
2023-04-30T03:21:52.483Z,102483.94
2023-04-30T03:24:19.485Z,102477.75
2023-04-30T03:26:46.736Z,102480.06
2023-04-30T03:29:13.375Z,102477.59
2023-04-30T03:31:39.948Z,102475.91
2023-04-30T03:34:06.562Z,102475.66
2023-04-30T03:36:33.746Z,102479.09
2023-04-30T03:39:00.839Z,102469.22
2023-04-30T03:41:27.431Z,102473.72
2023-04-30T03:43:54.620Z,102474.34
2023-04-30T03:46:21.478Z,102467.41
2023-04-30T03:48:48.068Z,102461.06
2023-04-30T03:51:14.587Z,102459.31
2023-04-30T03:53:41.098Z,102465.41
2023-04-30T03:56:08.122Z,102471.28
2023-04-30T03:58:34.650Z,102450.41
2023-04-30T04:01:01.172Z,102452.81
2023-04-30T04:03:27.797Z,102450.06
2023-04-30T04:05:54.402Z,102452.09
2023-04-30T04:08:21.090Z,102456.16
2023-04-30T04:10:47.723Z,102447.34
2023-04-30T04:13:14.331Z,102461.34
2023-04-30T04:15:40.897Z,102458.34
2023-04-30T04:18:08.653Z,102468.16
2023-04-30T04:20:35.384Z,102470.25
2023-04-30T04:23:01.935Z,102459.78
2023-04-30T04:25:29.387Z,102464.06
2023-04-30T04:27:55.925Z,102458.63
2023-04-30T04:30:22.509Z,102468.22
2023-04-30T04:32:51.977Z,102459.78
2023-04-30T04:35:19.373Z,102462.50
2023-04-30T04:37:45.996Z,102465.84
2023-04-30T04:40:13.623Z,102470.97
2023-04-30T04:42:40.204Z,102465.66
2023-04-30T04:45:11.207Z,102467.69
2023-04-30T04:47:38.334Z,102470.41
2023-04-30T04:50:05.309Z,102471.38
2023-04-30T04:52:31.907Z,102476.59
2023-04-30T04:54:58.430Z,102481.09
2023-04-30T04:57:25.761Z,102482.22
2023-04-30T04:59:52.706Z,102489.56
2023-04-30T05:02:19.520Z,102476.72
2023-04-30T05:04:47.317Z,102487.47
2023-04-30T05:07:13.854Z,102499.50
2023-04-30T05:09:40.540Z,102494.63
2023-04-30T05:12:07.068Z,102499.50
2023-04-30T05:14:33.593Z,102501.22
2023-04-30T05:17:00.103Z,102502.69
2023-04-30T05:19:26.830Z,102500.56
2023-04-30T05:21:53.406Z,102511.88
2023-04-30T05:24:20.296Z,102511.09
2023-04-30T05:26:46.916Z,102504.59
2023-04-30T05:29:14.051Z,102507.88
2023-04-30T05:31:40.801Z,102503.59
2023-04-30T05:34:07.519Z,102503.41
2023-04-30T05:36:34.152Z,102512.91
2023-04-30T05:39:00.919Z,102504.44
2023-04-30T05:41:27.460Z,102498.28
2023-04-30T05:43:53.994Z,102501.66
2023-04-30T05:46:20.709Z,102506.59
2023-04-30T05:48:48.306Z,102501.63
2023-04-30T05:51:14.963Z,102507.69
2023-04-30T05:53:41.471Z,102502.66
2023-04-30T05:56:08.889Z,102499.56
2023-04-30T05:58:35.488Z,102501.28
2023-04-30T06:01:02.331Z,102497.59
2023-04-30T06:03:28.868Z,102496.69
2023-04-30T06:05:55.431Z,102497.59
2023-04-30T06:08:21.968Z,102500.69
2023-04-30T06:10:49.038Z,102501.66
2023-04-30T06:13:16.575Z,102498.38
2023-04-30T06:15:43.173Z,102505.72
2023-04-30T06:18:09.743Z,102505.56
2023-04-30T06:20:36.274Z,102505.22
2023-04-30T06:23:03.966Z,102504.22
2023-04-30T06:25:30.632Z,102512.16
2023-04-30T06:27:57.147Z,102509.31
2023-04-30T06:30:23.681Z,102507.28
2023-04-30T06:32:50.347Z,102505.22
2023-04-30T06:35:16.930Z,102510.00
2023-04-30T06:37:43.500Z,102499.91
2023-04-30T06:40:10.393Z,102511.22
2023-04-30T06:42:36.955Z,102511.13
2023-04-30T06:45:04.096Z,102511.38
2023-04-30T06:47:34.797Z,102515.41
2023-04-30T06:50:02.133Z,102520.91
2023-04-30T06:52:28.928Z,102514.31
2023-04-30T06:54:55.521Z,102509.88
2023-04-30T06:57:22.118Z,102509.47
2023-04-30T06:59:48.665Z,102517.22
2023-04-30T07:02:15.230Z,102511.03
2023-04-30T07:04:41.949Z,102499.91
2023-04-30T07:07:08.951Z,102512.50
2023-04-30T07:09:35.513Z,102513.88
2023-04-30T07:12:02.720Z,102510.38
2023-04-30T07:14:29.380Z,102506.97
2023-04-30T07:16:56.355Z,102501.19
2023-04-30T07:19:25.368Z,102508.34
2023-04-30T07:21:51.886Z,102516.94
2023-04-30T07:24:18.480Z,102512.22
2023-04-30T07:26:44.999Z,102513.09
2023-04-30T07:29:11.669Z,102515.31
2023-04-30T07:31:38.249Z,102508.56
2023-04-30T07:34:04.832Z,102513.78
2023-04-30T07:36:31.613Z,102507.28
2023-04-30T07:38:58.246Z,102513.31
2023-04-30T07:41:26.236Z,102513.97
2023-04-30T07:43:52.807Z,102516.84
2023-04-30T07:46:19.416Z,102515.06
2023-04-30T07:48:45.997Z,102519.19
2023-04-30T07:51:12.581Z,102517.72
2023-04-30T07:53:39.074Z,102512.34
2023-04-30T07:56:05.800Z,102515.25
2023-04-30T07:58:32.330Z,102509.38
2023-04-30T08:00:58.909Z,102518.06
2023-04-30T08:03:25.734Z,102505.59
2023-04-30T08:05:53.166Z,102515.50
2023-04-30T08:08:19.872Z,102506.31
2023-04-30T08:10:46.392Z,102515.00
2023-04-30T08:13:12.932Z,102512.84
2023-04-30T08:15:40.161Z,102510.66
2023-04-30T08:18:06.978Z,102524.13
2023-04-30T08:20:34.553Z,102514.50
2023-04-30T08:23:02.155Z,102507.78
2023-04-30T08:25:28.734Z,102501.06
2023-04-30T08:27:55.636Z,102504.78
2023-04-30T08:30:22.169Z,102508.34
2023-04-30T08:32:49.815Z,102507.47
2023-04-30T08:35:19.841Z,102508.19
2023-04-30T08:37:46.433Z,102500.63
2023-04-30T08:40:14.042Z,102506.16
2023-04-30T08:42:47.430Z,102501.34
2023-04-30T08:45:14.616Z,102504.50
2023-04-30T08:47:41.853Z,102503.53
2023-04-30T08:50:09.114Z,102508.16
2023-04-30T08:52:37.373Z,102507.00
2023-04-30T08:55:07.716Z,102508.41
2023-04-30T08:57:34.238Z,102486.16
2023-04-30T09:00:00.905Z,102510.97
2023-04-30T09:02:27.561Z,102497.44
2023-04-30T09:04:54.446Z,102509.66
2023-04-30T09:07:23.648Z,102511.19
2023-04-30T09:09:53.784Z,102505.31
2023-04-30T09:12:20.678Z,102497.91
2023-04-30T09:15:04.780Z,102495.19
2023-04-30T09:17:32.459Z,102494.50
2023-04-30T09:20:12.912Z,102505.97
2023-04-30T09:22:41.167Z,102489.63
2023-04-30T09:25:09.254Z,102489.03
2023-04-30T09:27:35.875Z,102500.13
2023-04-30T09:30:02.992Z,102485.97
2023-04-30T09:32:29.553Z,102484.94
2023-04-30T09:34:56.413Z,102479.91
2023-04-30T09:37:35.880Z,102476.44
2023-04-30T09:40:02.725Z,102477.38
2023-04-30T09:42:29.301Z,102473.41
2023-04-30T09:44:55.907Z,102479.41
2023-04-30T09:47:22.801Z,102478.56
2023-04-30T09:49:53.715Z,102480.38
2023-04-30T09:52:21.401Z,102474.16
2023-04-30T09:54:48.347Z,102464.72
2023-04-30T09:57:16.058Z,102461.91
2023-04-30T09:59:46.972Z,102452.72
2023-04-30T10:02:20.190Z,102463.84
2023-04-30T10:04:53.953Z,102451.03
2023-04-30T10:07:22.609Z,102445.75
2023-04-30T10:09:51.653Z,102454.34
2023-04-30T10:12:33.798Z,102442.16
2023-04-30T10:15:10.262Z,102451.09
2023-04-30T10:17:44.174Z,102449.50
2023-04-30T10:20:12.929Z,102434.13
2023-04-30T10:22:41.876Z,102447.00
2023-04-30T10:25:13.412Z,102440.25
2023-04-30T10:27:40.083Z,102432.25
2023-04-30T10:30:11.485Z,102430.72
2023-04-30T10:32:49.034Z,102438.72
2023-04-30T10:35:26.066Z,102437.03
2023-04-30T10:38:03.472Z,102425.72
2023-04-30T10:40:35.529Z,102428.34
2023-04-30T10:43:02.077Z,102423.88
2023-04-30T10:45:38.802Z,102429.16
2023-04-30T10:48:07.335Z,102427.44
2023-04-30T10:50:40.555Z,102431.63
2023-04-30T10:53:07.264Z,102423.91
2023-04-30T10:55:33.836Z,102419.50
2023-04-30T10:58:00.428Z,102419.25
2023-04-30T11:00:29.188Z,102402.97
2023-04-30T11:03:03.621Z,102409.28
2023-04-30T11:05:40.175Z,102409.16
2023-04-30T11:08:11.500Z,102407.47
2023-04-30T11:10:38.072Z,102410.28
2023-04-30T11:13:06.785Z,102413.53
2023-04-30T11:15:42.291Z,102409.94
2023-04-30T11:18:09.807Z,102403.00
2023-04-30T11:20:51.061Z,102400.44
2023-04-30T11:23:32.249Z,102385.63
2023-04-30T11:26:07.666Z,102387.47
2023-04-30T11:28:37.686Z,102391.13
2023-04-30T11:31:05.137Z,102384.25
2023-04-30T11:33:33.466Z,102381.63
2023-04-30T11:36:01.363Z,102371.28
2023-04-30T11:38:28.983Z,102369.59
2023-04-30T11:40:57.373Z,102359.19
2023-04-30T11:43:26.044Z,102361.81
2023-04-30T11:46:10.771Z,102363.56
2023-04-30T11:48:42.490Z,102360.94
2023-04-30T11:51:20.527Z,102358.31
2023-04-30T11:53:49.532Z,102360.00
2023-04-30T11:56:21.341Z,102353.03
2023-04-30T11:58:49.392Z,102343.53
2023-04-30T12:01:17.282Z,102340.84
2023-04-30T12:03:48.806Z,102344.44
2023-04-30T12:06:27.594Z,102345.31
2023-04-30T12:08:58.876Z,102336.63
2023-04-30T12:11:28.119Z,102330.47
2023-04-30T12:14:03.416Z,102331.31
2023-04-30T12:16:52.104Z,102329.56
2023-04-30T12:19:22.042Z,102324.31
2023-04-30T12:21:49.737Z,102324.44
2023-04-30T12:24:18.567Z,102322.69
2023-04-30T12:26:45.948Z,102312.19
2023-04-30T12:29:17.122Z,102322.59
2023-04-30T12:31:44.584Z,102313.09
2023-04-30T12:34:15.312Z,102316.63
2023-04-30T12:36:42.914Z,102318.38
2023-04-30T12:39:13.388Z,102311.41
2023-04-30T12:41:45.940Z,102316.59
2023-04-30T12:44:16.645Z,102307.03
2023-04-30T12:46:43.745Z,102311.38
2023-04-30T12:49:11.433Z,102300.09
2023-04-30T12:51:41.726Z,102296.63
2023-04-30T12:54:08.550Z,102283.56
2023-04-30T12:56:35.414Z,102294.88
2023-04-30T12:59:01.939Z,102293.13
2023-04-30T13:01:28.852Z,102287.91
2023-04-30T13:03:55.849Z,102278.34
2023-04-30T13:06:23.600Z,102284.44
2023-04-30T13:08:58.506Z,102280.00
2023-04-30T13:11:26.964Z,102266.00
2023-04-30T13:13:55.676Z,102269.56
2023-04-30T13:16:23.782Z,102260.97
2023-04-30T13:18:50.356Z,102258.34
2023-04-30T13:21:16.942Z,102260.06
2023-04-30T13:23:51.983Z,102260.97
2023-04-30T13:26:22.665Z,102251.41
2023-04-30T13:28:49.177Z,102260.97
2023-04-30T13:31:15.723Z,102230.50
2023-04-30T13:33:42.476Z,102245.28
2023-04-30T13:36:09.059Z,102256.53
2023-04-30T13:38:35.631Z,102234.88
2023-04-30T13:41:02.214Z,102246.09
2023-04-30T13:43:28.786Z,102235.59
2023-04-30T13:45:55.370Z,102236.47
2023-04-30T13:48:22.068Z,102237.34
2023-04-30T13:50:48.853Z,102229.53
2023-04-30T13:53:16.107Z,102226.16
2023-04-30T13:55:42.767Z,102233.97
2023-04-30T13:58:09.448Z,102218.34
2023-04-30T14:00:35.959Z,102228.72
2023-04-30T14:03:02.925Z,102220.84
2023-04-30T14:05:30.655Z,102215.59
2023-04-30T14:07:57.233Z,102215.59
2023-04-30T14:10:23.957Z,102212.16
2023-04-30T14:12:50.540Z,102217.41
2023-04-30T14:15:17.238Z,102218.28
2023-04-30T14:17:43.802Z,102215.69
2023-04-30T14:20:11.532Z,102207.91
2023-04-30T14:22:41.417Z,102203.53
2023-04-30T14:25:09.273Z,102202.66
2023-04-30T14:27:36.417Z,102200.06
2023-04-30T14:30:04.112Z,102205.28
2023-04-30T14:32:30.729Z,102207.03
2023-04-30T14:34:57.468Z,102199.22
2023-04-30T14:37:25.119Z,102194.84
2023-04-30T14:39:51.792Z,102204.41
2023-04-30T14:42:18.336Z,102189.59
2023-04-30T14:44:44.896Z,102196.50
2023-04-30T14:47:11.713Z,102194.75
2023-04-30T14:49:38.236Z,102189.50
2023-04-30T14:52:05.044Z,102180.81
2023-04-30T14:54:31.591Z,102182.56
2023-04-30T14:56:58.365Z,102166.94
2023-04-30T14:59:24.983Z,102179.00
2023-04-30T15:01:51.580Z,102178.19
2023-04-30T15:04:18.245Z,102180.91
2023-04-30T15:06:45.040Z,102174.00
2023-04-30T15:09:12.304Z,102163.56
2023-04-30T15:11:38.835Z,102158.41
2023-04-30T15:14:05.349Z,102167.94
2023-04-30T15:16:31.893Z,102159.19
2023-04-30T15:18:59.414Z,102154.84
2023-04-30T15:21:26.625Z,102140.91
2023-04-30T15:23:53.395Z,102147.84
2023-04-30T15:26:20.138Z,102153.00
2023-04-30T15:28:46.808Z,102150.50
2023-04-30T15:31:13.409Z,102153.13
2023-04-30T15:33:42.146Z,102149.59
2023-04-30T15:36:10.919Z,102134.78
2023-04-30T15:38:37.428Z,102137.38
2023-04-30T15:41:04.054Z,102139.06
2023-04-30T15:43:32.295Z,102139.94
2023-04-30T15:45:59.426Z,102139.94
2023-04-30T15:48:26.266Z,102142.59
2023-04-30T15:50:52.932Z,102141.78
2023-04-30T15:53:19.509Z,102132.25
2023-04-30T15:55:47.885Z,102140.13
2023-04-30T15:58:14.980Z,102118.38
2023-04-30T16:00:41.900Z,102128.81
2023-04-30T16:03:08.517Z,102127.06
2023-04-30T16:05:38.731Z,102118.34
2023-04-30T16:08:10.320Z,102116.63
2023-04-30T16:10:37.606Z,102113.16
2023-04-30T16:13:04.417Z,102110.56
2023-04-30T16:15:31.892Z,102114.00
2023-04-30T16:17:58.559Z,102120.13
2023-04-30T16:20:25.329Z,102118.38
2023-04-30T16:22:52.663Z,102107.97
2023-04-30T16:25:20.658Z,102102.75
2023-04-30T16:27:47.258Z,102102.69
2023-04-30T16:30:13.774Z,102098.38
2023-04-30T16:32:40.395Z,102087.97
2023-04-30T16:35:07.582Z,102095.78
2023-04-30T16:37:34.152Z,102085.38
2023-04-30T16:40:01.521Z,102082.75
2023-04-30T16:42:29.956Z,102081.00
2023-04-30T16:44:56.676Z,102085.34
2023-04-30T16:47:23.423Z,102087.09
2023-04-30T16:49:50.117Z,102084.47
2023-04-30T16:52:16.795Z,102084.47
2023-04-30T16:54:43.317Z,102084.44
2023-04-30T16:57:09.908Z,102075.75
2023-04-30T16:59:36.422Z,102078.34
2023-04-30T17:02:03.804Z,102076.59
2023-04-30T17:04:31.162Z,102081.75
2023-04-30T17:06:57.760Z,102073.91
2023-04-30T17:09:24.323Z,102063.50
2023-04-30T17:11:51.037Z,102070.53
2023-04-30T17:14:17.604Z,102071.41
2023-04-30T17:16:45.022Z,102072.31
2023-04-30T17:19:11.563Z,102061.88
2023-04-30T17:21:38.066Z,102058.41
2023-04-30T17:24:05.379Z,102063.63
2023-04-30T17:26:32.214Z,102056.69
2023-04-30T17:28:58.789Z,102061.00
2023-04-30T17:31:26.242Z,102049.72
2023-04-30T17:33:52.882Z,102057.50
2023-04-30T17:36:19.736Z,102046.19
2023-04-30T17:38:46.234Z,102050.50
2023-04-30T17:41:12.752Z,102049.63
2023-04-30T17:43:39.297Z,102054.81
2023-04-30T17:46:05.901Z,102044.34
2023-04-30T17:48:32.476Z,102052.13
2023-04-30T17:50:59.092Z,102045.13
2023-04-30T17:53:25.629Z,102056.41
2023-04-30T17:55:52.454Z,102045.09
2023-04-30T17:58:19.002Z,102053.78
2023-04-30T18:00:45.733Z,102047.66
2023-04-30T18:03:12.415Z,102046.75
2023-04-30T18:05:39.575Z,102036.31
2023-04-30T18:08:06.606Z,102045.81
2023-04-30T18:10:33.161Z,102053.59
2023-04-30T18:12:59.776Z,102040.56
2023-04-30T18:15:27.390Z,102048.34
2023-04-30T18:17:54.249Z,102051.75
2023-04-30T18:20:22.064Z,102042.16
2023-04-30T18:22:48.910Z,102047.34
2023-04-30T18:25:17.177Z,102047.28
2023-04-30T18:27:44.600Z,102051.59
2023-04-30T18:30:12.574Z,102052.38
2023-04-30T18:32:39.286Z,102046.31
2023-04-30T18:35:06.322Z,102044.44
2023-04-30T18:37:33.003Z,102047.03
2023-04-30T18:40:00.500Z,102044.28
2023-04-30T18:42:27.257Z,102045.09
2023-04-30T18:44:54.352Z,102044.13
2023-04-30T18:47:20.971Z,102043.19
2023-04-30T18:49:47.576Z,102046.59
2023-04-30T18:52:14.125Z,102037.84
2023-04-30T18:54:42.053Z,102036.81
2023-04-30T18:57:12.263Z,102035.03
2023-04-30T18:59:39.595Z,102031.50
2023-04-30T19:02:06.456Z,102035.75
2023-04-30T19:04:33.191Z,102035.59
2023-04-30T19:06:59.758Z,102029.38
2023-04-30T19:09:26.297Z,102031.91
2023-04-30T19:11:53.233Z,102030.91
2023-04-30T19:14:19.832Z,102032.59
2023-04-30T19:16:46.932Z,102038.53
2023-04-30T19:19:13.922Z,102034.84
2023-04-30T19:21:40.578Z,102040.03
2023-04-30T19:24:07.308Z,102032.97
2023-04-30T19:26:34.750Z,102046.78
2023-04-30T19:29:01.415Z,102046.66
2023-04-30T19:31:28.192Z,102051.00
2023-04-30T19:33:54.893Z,102042.28
2023-04-30T19:36:21.516Z,102049.91
2023-04-30T19:38:51.304Z,102046.38
2023-04-30T19:41:17.821Z,102054.88
2023-04-30T19:43:44.675Z,102041.75
2023-04-30T19:46:11.732Z,102039.88
2023-04-30T19:48:38.455Z,102047.56
2023-04-30T19:51:05.325Z,102050.06
2023-04-30T19:53:31.926Z,102036.91
2023-04-30T19:55:59.832Z,102049.81
2023-04-30T19:58:26.401Z,102035.75
2023-04-30T20:00:53.574Z,102043.53
2023-04-30T20:03:21.812Z,102038.97
2023-04-30T20:05:48.480Z,102041.56
2023-04-30T20:08:15.051Z,102044.09
2023-04-30T20:10:42.772Z,102045.69
2023-04-30T20:13:09.497Z,102042.03
2023-04-30T20:15:36.415Z,102046.19
2023-04-30T20:18:04.998Z,102027.00
2023-04-30T20:20:31.960Z,102040.88
2023-04-30T20:22:58.604Z,102041.59
2023-04-30T20:25:29.546Z,102031.09
2023-04-30T20:27:56.473Z,102039.66
2023-04-30T20:30:23.963Z,102044.72
2023-04-30T20:32:50.839Z,102040.22
2023-04-30T20:35:18.417Z,102032.34
2023-04-30T20:37:44.995Z,102034.97
2023-04-30T20:40:11.833Z,102041.66
2023-04-30T20:42:40.679Z,102038.16
2023-04-30T20:45:07.921Z,102029.44
2023-04-30T20:47:34.482Z,102034.56
2023-04-30T20:50:01.090Z,102029.19
2023-04-30T20:52:27.782Z,102032.66
2023-04-30T20:54:54.488Z,102035.16
2023-04-30T20:57:21.050Z,102023.81
2023-04-30T20:59:47.682Z,102027.25
2023-04-30T21:02:14.507Z,102014.13
2023-04-30T21:04:41.124Z,102024.47
2023-04-30T21:07:07.691Z,102018.34
2023-04-30T21:09:35.672Z,102020.91
2023-04-30T21:12:05.077Z,102019.06
2023-04-30T21:14:32.251Z,102019.84
2023-04-30T21:16:59.486Z,102013.78
2023-04-30T21:19:26.721Z,101991.94
2023-04-30T21:21:53.350Z,102010.19
2023-04-30T21:24:19.914Z,102006.69
2023-04-30T21:26:46.682Z,102004.75
2023-04-30T21:29:13.238Z,102000.22
2023-04-30T21:31:39.863Z,102008.78
2023-04-30T21:34:06.354Z,102002.69
2023-04-30T21:36:32.963Z,101998.28
2023-04-30T21:38:59.551Z,101994.72
2023-04-30T21:41:27.952Z,102001.56
2023-04-30T21:43:55.547Z,102003.16
2023-04-30T21:46:22.756Z,101986.53
2023-04-30T21:48:49.493Z,101992.66
2023-04-30T21:51:17.450Z,101999.41
2023-04-30T21:53:44.773Z,102003.66
2023-04-30T21:56:11.954Z,101994.97
2023-04-30T21:58:39.331Z,101980.09
2023-04-30T22:01:06.381Z,101988.81
2023-04-30T22:03:33.392Z,101980.06
2023-04-30T22:06:00.806Z,101986.06
2023-04-30T22:08:28.064Z,101984.16
2023-04-30T22:10:59.494Z,101989.31
2023-04-30T22:13:29.548Z,101994.34
2023-04-30T22:15:56.827Z,101982.22
2023-04-30T22:18:24.656Z,101979.56
2023-04-30T22:20:52.315Z,101976.06
2023-04-30T22:23:21.329Z,101977.78
2023-04-30T22:25:49.341Z,101970.66
2023-04-30T22:28:16.985Z,101978.38
2023-04-30T22:30:43.867Z,101975.75
2023-04-30T22:33:10.552Z,101960.97
2023-04-30T22:35:40.744Z,101958.22
2023-04-30T22:38:08.006Z,101966.81
2023-04-30T22:40:37.833Z,101974.44
2023-04-30T22:43:05.208Z,101958.75
2023-04-30T22:45:32.794Z,101963.94
2023-04-30T22:48:01.598Z,101965.50
2023-04-30T22:50:28.706Z,101960.31
2023-04-30T22:52:56.298Z,101955.84
2023-04-30T22:55:23.052Z,101961.97
2023-04-30T22:57:49.577Z,101961.00
2023-04-30T23:00:16.791Z,101954.84
2023-04-30T23:02:43.762Z,101965.09
2023-04-30T23:05:11.533Z,101958.94
2023-04-30T23:07:38.221Z,101958.22
2023-04-30T23:10:06.212Z,101966.66
2023-04-30T23:12:32.841Z,101959.72
2023-04-30T23:14:59.350Z,101957.94
2023-04-30T23:17:27.053Z,101962.91
2023-04-30T23:19:53.967Z,101963.72
2023-04-30T23:22:20.723Z,101956.75
2023-04-30T23:24:47.327Z,101957.47
2023-04-30T23:27:13.970Z,101956.56
2023-04-30T23:29:40.570Z,101952.06
2023-04-30T23:32:07.142Z,101953.78
2023-04-30T23:34:33.714Z,101951.13
2023-04-30T23:37:00.661Z,101946.72
2023-04-30T23:39:27.189Z,101940.47
2023-04-30T23:41:53.769Z,101942.91
2023-04-30T23:44:20.922Z,101943.56
2023-04-30T23:46:48.023Z,101940.84
2023-04-30T23:49:16.535Z,101937.25
2023-04-30T23:51:43.097Z,101949.25
2023-04-30T23:54:09.650Z,101941.41
2023-04-30T23:56:37.293Z,101935.31
2023-04-30T23:59:03.944Z,101936.97
